createdAt,value
2022-10-02T00:02:02.811Z,14.39
2022-10-02T00:04:36.976Z,14.39
2022-10-02T00:07:06.523Z,14.37
2022-10-02T00:09:35.595Z,14.41
2022-10-02T00:12:02.053Z,14.39
2022-10-02T00:14:32.172Z,14.39
2022-10-02T00:17:00.526Z,14.39
2022-10-02T00:19:27.524Z,14.37
2022-10-02T00:22:12.827Z,14.37
2022-10-02T00:24:43.784Z,14.38
2022-10-02T00:27:15.496Z,14.38
2022-10-02T00:29:52.798Z,14.43
2022-10-02T00:32:34.132Z,14.47
2022-10-02T00:35:03.242Z,14.50
2022-10-02T00:37:29.607Z,14.51
2022-10-02T00:40:03.146Z,14.52
2022-10-02T00:42:38.625Z,14.56
2022-10-02T00:45:40.739Z,14.61
2022-10-02T00:48:07.776Z,14.64
2022-10-02T00:50:50.111Z,14.64
2022-10-02T00:53:19.602Z,14.65
2022-10-02T00:55:56.232Z,14.77
2022-10-02T00:58:31.269Z,14.83
2022-10-02T01:01:09.339Z,14.85
2022-10-02T01:03:53.140Z,14.81
2022-10-02T01:06:24.215Z,14.89
2022-10-02T01:08:51.995Z,14.92
2022-10-02T01:11:19.483Z,14.94
2022-10-02T01:13:45.931Z,14.93
2022-10-02T01:16:14.027Z,14.93
2022-10-02T01:18:41.880Z,14.92
2022-10-02T01:21:12.593Z,14.89
2022-10-02T01:23:45.004Z,14.89
2022-10-02T01:26:11.514Z,14.87
2022-10-02T01:28:38.121Z,14.86
2022-10-02T01:31:14.472Z,14.81
2022-10-02T01:33:41.944Z,14.76
2022-10-02T01:36:09.643Z,14.77
2022-10-02T01:38:36.551Z,14.70
2022-10-02T01:41:02.944Z,14.66
2022-10-02T01:43:34.086Z,14.61
2022-10-02T01:46:19.028Z,14.55
2022-10-02T01:49:08.629Z,14.49
2022-10-02T01:51:40.914Z,14.45
2022-10-02T01:54:25.771Z,14.39
2022-10-02T01:56:57.507Z,14.32
2022-10-02T01:59:35.427Z,14.28
2022-10-02T02:02:17.637Z,14.24
2022-10-02T02:04:54.803Z,14.22
2022-10-02T02:07:28.149Z,14.20
2022-10-02T02:10:01.001Z,14.18
2022-10-02T02:12:27.367Z,14.19
2022-10-02T02:15:03.094Z,14.14
2022-10-02T02:17:39.730Z,14.18
2022-10-02T02:20:08.840Z,14.17
2022-10-02T02:22:41.094Z,14.16
2022-10-02T02:25:13.629Z,14.15
2022-10-02T02:27:42.717Z,14.14
2022-10-02T02:30:11.959Z,14.13
2022-10-02T02:32:45.183Z,14.09
2022-10-02T02:35:15.433Z,14.08
2022-10-02T02:37:42.535Z,14.05
2022-10-02T02:40:13.726Z,14.03
2022-10-02T02:42:42.232Z,14.03
2022-10-02T02:45:18.719Z,14.01
2022-10-02T02:47:52.689Z,13.99
2022-10-02T02:50:22.244Z,13.99
2022-10-02T02:52:52.193Z,14.00
2022-10-02T02:55:20.078Z,14.00
2022-10-02T02:57:56.632Z,14.00
2022-10-02T03:00:24.574Z,13.96
2022-10-02T03:02:54.410Z,14.00
2022-10-02T03:05:22.722Z,13.98
2022-10-02T03:07:52.384Z,13.94
2022-10-02T03:10:25.741Z,13.96
2022-10-02T03:13:00.520Z,13.95
2022-10-02T03:15:26.956Z,13.92
2022-10-02T03:18:03.126Z,13.92
2022-10-02T03:20:35.795Z,13.88
2022-10-02T03:23:17.059Z,13.91
2022-10-02T03:26:01.876Z,13.86
2022-10-02T03:28:55.497Z,13.87
2022-10-02T03:31:23.618Z,13.80
2022-10-02T03:33:50.836Z,13.76
2022-10-02T03:36:21.052Z,13.78
2022-10-02T03:39:00.758Z,13.72
2022-10-02T03:41:34.620Z,13.71
2022-10-02T03:44:01.163Z,13.72
2022-10-02T03:46:27.676Z,13.73
2022-10-02T03:48:56.366Z,13.70
2022-10-02T03:51:23.837Z,13.70
2022-10-02T03:53:50.328Z,13.70
2022-10-02T03:56:23.950Z,13.70
2022-10-02T03:58:52.532Z,13.69
2022-10-02T04:01:23.619Z,13.68
2022-10-02T04:03:50.126Z,13.64
2022-10-02T04:06:22.591Z,13.65
2022-10-02T04:09:02.826Z,13.67
2022-10-02T04:11:35.095Z,13.67
2022-10-02T04:14:06.135Z,13.67
2022-10-02T04:16:35.550Z,13.67
2022-10-02T04:19:07.270Z,13.67
2022-10-02T04:21:34.604Z,13.65
2022-10-02T04:24:21.600Z,13.66
2022-10-02T04:27:08.538Z,13.66
2022-10-02T04:29:50.188Z,13.66
2022-10-02T04:32:17.317Z,13.65
2022-10-02T04:34:44.028Z,13.70
2022-10-02T04:37:19.572Z,13.74
2022-10-02T04:39:58.626Z,13.78
2022-10-02T04:42:34.784Z,13.82
2022-10-02T04:45:19.957Z,13.85
2022-10-02T04:47:55.423Z,13.88
2022-10-02T04:50:40.761Z,13.88
2022-10-02T04:53:15.572Z,13.92
2022-10-02T04:55:57.492Z,13.93
2022-10-02T04:58:36.178Z,13.95
2022-10-02T05:01:15.452Z,13.97
2022-10-02T05:03:51.508Z,14.01
2022-10-02T05:06:36.627Z,14.02
2022-10-02T05:09:37.368Z,14.03
2022-10-02T05:12:12.683Z,14.07
2022-10-02T05:14:45.065Z,14.06
2022-10-02T05:17:23.547Z,14.05
2022-10-02T05:20:09.551Z,14.03
2022-10-02T05:22:41.853Z,14.02
2022-10-02T05:25:30.307Z,14.02
2022-10-02T05:28:02.820Z,14.01
2022-10-02T05:30:33.680Z,14.03
2022-10-02T05:33:18.819Z,14.01
2022-10-02T05:35:48.242Z,13.99
2022-10-02T05:38:20.762Z,13.99
2022-10-02T05:40:50.194Z,14.00
2022-10-02T05:43:34.442Z,13.99
2022-10-02T05:46:24.317Z,13.97
2022-10-02T05:49:02.704Z,13.97
2022-10-02T05:51:36.756Z,13.99
2022-10-02T05:54:06.984Z,14.03
2022-10-02T05:56:38.768Z,14.05
2022-10-02T05:59:28.689Z,14.11
2022-10-02T06:01:55.734Z,14.14
2022-10-02T06:04:22.352Z,14.18
2022-10-02T06:06:51.683Z,14.19
2022-10-02T06:09:24.159Z,14.22
2022-10-02T06:11:53.448Z,14.25
2022-10-02T06:14:23.538Z,14.25
2022-10-02T06:17:00.818Z,14.28
2022-10-02T06:19:30.902Z,14.30
2022-10-02T06:22:05.764Z,14.37
2022-10-02T06:24:39.682Z,14.38
2022-10-02T06:27:13.665Z,14.42
2022-10-02T06:29:43.589Z,14.46
2022-10-02T06:32:19.224Z,14.44
2022-10-02T06:34:47.985Z,14.47
2022-10-02T06:37:27.993Z,14.50
2022-10-02T06:40:01.202Z,14.50
2022-10-02T06:42:47.260Z,14.57
2022-10-02T06:45:32.665Z,14.63
2022-10-02T06:48:05.786Z,14.73
2022-10-02T06:50:50.715Z,14.82
2022-10-02T06:53:35.960Z,14.96
2022-10-02T06:56:15.198Z,15.09
2022-10-02T06:58:55.218Z,15.21
2022-10-02T07:01:41.037Z,15.22
2022-10-02T07:04:29.165Z,15.16
2022-10-02T07:07:21.766Z,15.15
2022-10-02T07:09:54.046Z,15.13
2022-10-02T07:12:39.347Z,15.12
2022-10-02T07:15:25.999Z,15.17
2022-10-02T07:17:59.448Z,15.35
2022-10-02T07:20:29.619Z,15.45
2022-10-02T07:23:02.115Z,15.49
2022-10-02T07:25:28.480Z,15.52
2022-10-02T07:28:01.054Z,15.60
2022-10-02T07:30:32.548Z,15.74
2022-10-02T07:33:19.449Z,15.91
2022-10-02T07:35:53.500Z,15.95
2022-10-02T07:38:45.593Z,15.96
2022-10-02T07:41:18.733Z,15.97
2022-10-02T07:44:12.768Z,16.00
2022-10-02T07:46:39.397Z,16.06
2022-10-02T07:49:24.715Z,16.12
2022-10-02T07:51:51.240Z,16.18
2022-10-02T07:54:29.900Z,16.20
2022-10-02T07:56:58.170Z,16.28
2022-10-02T07:59:24.711Z,16.33
2022-10-02T08:01:51.912Z,16.49
2022-10-02T08:04:24.385Z,16.65
2022-10-02T08:06:54.916Z,16.82
2022-10-02T08:09:31.666Z,17.03
2022-10-02T08:12:21.163Z,17.19
2022-10-02T08:14:48.547Z,17.24
2022-10-02T08:17:14.922Z,17.21
2022-10-02T08:19:43.608Z,17.21
2022-10-02T08:22:17.296Z,17.27
2022-10-02T08:24:47.370Z,17.27
2022-10-02T08:27:15.709Z,17.31
2022-10-02T08:29:44.472Z,17.44
2022-10-02T08:32:11.831Z,17.55
2022-10-02T08:34:38.233Z,17.67
2022-10-02T08:37:21.807Z,17.86
2022-10-02T08:39:56.120Z,17.90
2022-10-02T08:42:41.370Z,18.14
2022-10-02T08:45:20.574Z,18.49
2022-10-02T08:48:02.530Z,18.86
2022-10-02T08:50:32.110Z,18.94
2022-10-02T08:52:58.522Z,18.87
2022-10-02T08:55:42.178Z,18.95
2022-10-02T08:58:17.887Z,19.04
2022-10-02T09:00:47.383Z,19.13
2022-10-02T09:03:37.913Z,19.19
2022-10-02T09:06:26.274Z,19.49
2022-10-02T09:09:03.296Z,19.82
2022-10-02T09:11:48.242Z,20.16
2022-10-02T09:14:20.989Z,20.33
2022-10-02T09:17:06.047Z,20.55
2022-10-02T09:19:41.869Z,20.37
2022-10-02T09:22:14.153Z,20.49
2022-10-02T09:25:04.344Z,20.30
2022-10-02T09:27:30.749Z,20.11
2022-10-02T09:29:57.110Z,20.19
2022-10-02T09:32:52.677Z,20.32
2022-10-02T09:35:31.580Z,20.28
2022-10-02T09:38:11.030Z,19.54
2022-10-02T09:40:53.105Z,19.38
2022-10-02T09:43:33.406Z,19.18
2022-10-02T09:46:02.592Z,19.58
2022-10-02T09:48:45.038Z,19.97
2022-10-02T09:51:14.443Z,20.45
2022-10-02T09:54:02.423Z,20.83
2022-10-02T09:56:47.472Z,21.13
2022-10-02T09:59:18.335Z,20.95
2022-10-02T10:01:53.386Z,20.91
2022-10-02T10:05:04.673Z,21.02
2022-10-02T10:07:49.240Z,20.77
2022-10-02T10:10:21.719Z,20.69
2022-10-02T10:13:07.514Z,20.73
2022-10-02T10:15:46.187Z,20.71
2022-10-02T10:18:12.590Z,20.61
2022-10-02T10:20:54.362Z,20.90
2022-10-02T10:23:31.580Z,20.93
2022-10-02T10:25:58.009Z,20.97
2022-10-02T10:28:40.919Z,21.11
2022-10-02T10:31:27.991Z,20.92
2022-10-02T10:34:03.084Z,20.82
2022-10-02T10:37:07.015Z,21.00
2022-10-02T10:39:52.052Z,20.98
2022-10-02T10:42:24.612Z,21.08
2022-10-02T10:45:05.689Z,20.97
2022-10-02T10:47:35.199Z,20.67
2022-10-02T10:50:04.586Z,20.37
2022-10-02T10:52:44.197Z,20.81
2022-10-02T10:55:19.135Z,20.68
2022-10-02T10:57:51.943Z,20.13
2022-10-02T11:00:36.302Z,20.23
2022-10-02T11:03:03.394Z,20.18
2022-10-02T11:05:48.243Z,20.15
2022-10-02T11:08:33.530Z,20.33
2022-10-02T11:11:08.750Z,20.92
2022-10-02T11:13:44.013Z,21.48
2022-10-02T11:16:22.086Z,21.92
2022-10-02T11:19:03.501Z,22.32
2022-10-02T11:21:48.692Z,22.43
2022-10-02T11:24:24.639Z,22.66
2022-10-02T11:26:57.150Z,21.80
2022-10-02T11:29:36.971Z,21.32
2022-10-02T11:32:19.307Z,20.79
2022-10-02T11:34:56.534Z,20.25
2022-10-02T11:37:41.957Z,20.03
2022-10-02T11:40:23.417Z,19.24
2022-10-02T11:42:55.855Z,19.21
2022-10-02T11:45:31.548Z,19.67
2022-10-02T11:48:23.976Z,19.66
2022-10-02T11:51:28.720Z,19.28
2022-10-02T11:54:16.344Z,19.25
2022-10-02T11:57:02.779Z,19.17
2022-10-02T11:59:39.977Z,19.18
2022-10-02T12:02:10.836Z,19.15
2022-10-02T12:04:46.642Z,19.32
2022-10-02T12:07:13.109Z,19.74
2022-10-02T12:09:57.952Z,20.53
2022-10-02T12:12:27.699Z,20.76
2022-10-02T12:15:17.555Z,20.50
2022-10-02T12:18:21.623Z,21.07
2022-10-02T12:22:00.572Z,21.43
2022-10-02T12:25:38.582Z,20.63
2022-10-02T12:28:43.548Z,20.08
2022-10-02T12:31:43.654Z,20.05
2022-10-02T12:34:55.589Z,20.40
2022-10-02T12:37:52.607Z,20.95
2022-10-02T12:40:45.171Z,21.50
2022-10-02T12:43:55.632Z,21.80
2022-10-02T12:46:51.672Z,21.85
2022-10-02T12:49:45.839Z,21.90
2022-10-02T12:52:15.769Z,21.96
2022-10-02T12:55:11.619Z,22.18
2022-10-02T12:58:19.653Z,22.07
2022-10-02T13:01:36.851Z,22.20
2022-10-02T13:04:39.059Z,22.32
2022-10-02T13:07:19.757Z,22.13
2022-10-02T13:10:06.423Z,22.55
2022-10-02T13:13:02.694Z,22.43
2022-10-02T13:15:59.008Z,22.62
2022-10-02T13:19:00.488Z,22.70
2022-10-02T13:21:35.821Z,22.58
2022-10-02T13:24:04.289Z,22.18
2022-10-02T13:26:36.505Z,21.68
2022-10-02T13:29:41.730Z,21.44
2022-10-02T13:33:00.725Z,21.17
2022-10-02T13:36:07.344Z,21.63
2022-10-02T13:39:18.723Z,22.02
2022-10-02T13:42:23.766Z,22.19
2022-10-02T13:45:27.810Z,21.99
2022-10-02T13:48:24.198Z,22.08
2022-10-02T13:51:25.769Z,22.17
2022-10-02T13:54:48.795Z,22.07
2022-10-02T13:57:38.050Z,22.21
2022-10-02T14:00:54.814Z,22.15
2022-10-02T14:03:47.851Z,21.98
2022-10-02T14:06:49.787Z,22.13
2022-10-02T14:09:52.947Z,22.32
2022-10-02T14:13:05.810Z,22.26
2022-10-02T14:16:02.315Z,22.15
2022-10-02T14:18:54.844Z,22.00
2022-10-02T14:21:53.860Z,21.60
2022-10-02T14:25:07.846Z,21.72
2022-10-02T14:28:14.939Z,21.28
2022-10-02T14:31:28.897Z,21.17
2022-10-02T14:34:15.229Z,21.11
2022-10-02T14:37:30.878Z,21.19
2022-10-02T14:40:26.880Z,20.86
2022-10-02T14:43:33.547Z,21.03
2022-10-02T14:46:29.882Z,21.07
2022-10-02T14:49:41.833Z,20.95
2022-10-02T14:52:22.396Z,20.88
2022-10-02T14:55:13.921Z,20.60
2022-10-02T14:58:06.911Z,20.53
2022-10-02T15:01:17.007Z,20.34
2022-10-02T15:04:16.182Z,20.19
2022-10-02T15:07:02.942Z,19.85
2022-10-02T15:09:52.228Z,20.02
2022-10-02T15:12:58.439Z,19.83
2022-10-02T15:16:13.070Z,19.69
2022-10-02T15:19:10.961Z,19.49
2022-10-02T15:22:14.564Z,19.52
2022-10-02T15:25:17.568Z,19.55
2022-10-02T15:27:50.092Z,19.56
2022-10-02T15:30:23.754Z,19.10
2022-10-02T15:33:11.307Z,19.14
2022-10-02T15:36:05.009Z,19.06
2022-10-02T15:39:13.186Z,19.06
2022-10-02T15:41:50.024Z,18.96
2022-10-02T15:44:36.551Z,18.89
2022-10-02T15:47:35.902Z,18.89
2022-10-02T15:50:21.162Z,18.81
2022-10-02T15:52:49.329Z,18.74
2022-10-02T15:55:19.944Z,18.51
2022-10-02T15:58:15.043Z,18.62
2022-10-02T16:01:26.059Z,18.46
2022-10-02T16:04:38.101Z,18.37
2022-10-02T16:07:55.086Z,18.35
2022-10-02T16:10:50.485Z,18.16
2022-10-02T16:13:49.089Z,18.01
2022-10-02T16:16:41.967Z,18.02
2022-10-02T16:19:46.101Z,17.95
2022-10-02T16:22:45.143Z,17.98
2022-10-02T16:25:58.112Z,17.90
2022-10-02T16:28:54.156Z,17.93
2022-10-02T16:31:59.128Z,17.81
2022-10-02T16:35:06.098Z,17.70
2022-10-02T16:37:59.962Z,17.64
2022-10-02T16:40:26.808Z,17.61
2022-10-02T16:43:12.155Z,17.54
2022-10-02T16:46:13.857Z,17.45
2022-10-02T16:48:51.872Z,17.37
2022-10-02T16:51:57.175Z,17.37
2022-10-02T16:54:51.182Z,17.38
2022-10-02T16:57:52.185Z,17.24
2022-10-02T17:01:06.241Z,17.17
2022-10-02T17:04:20.212Z,16.99
2022-10-02T17:07:31.897Z,17.00
2022-10-02T17:10:24.231Z,16.95
2022-10-02T17:13:20.205Z,16.89
2022-10-02T17:16:24.185Z,16.88
2022-10-02T17:19:24.221Z,16.82
2022-10-02T17:22:15.009Z,16.60
2022-10-02T17:24:54.243Z,16.59
2022-10-02T17:27:45.561Z,16.55
2022-10-02T17:30:51.260Z,16.49
2022-10-02T17:33:45.656Z,16.44
2022-10-02T17:36:19.697Z,16.33
2022-10-02T17:38:56.325Z,16.31
2022-10-02T17:42:12.342Z,16.27
2022-10-02T17:45:24.304Z,16.21
2022-10-02T17:48:28.284Z,16.13
2022-10-02T17:51:47.155Z,16.06
2022-10-02T17:55:06.321Z,15.91
2022-10-02T17:58:05.318Z,15.87
2022-10-02T18:01:10.564Z,15.87
2022-10-02T18:04:15.324Z,15.81
2022-10-02T18:07:23.271Z,15.79
2022-10-02T18:10:10.342Z,15.70
2022-10-02T18:12:56.567Z,15.62
2022-10-02T18:15:34.647Z,15.60
2022-10-02T18:18:27.349Z,15.59
2022-10-02T18:21:39.346Z,15.61
2022-10-02T18:24:32.369Z,15.53
2022-10-02T18:27:37.393Z,15.53
2022-10-02T18:30:20.390Z,15.47
2022-10-02T18:33:06.638Z,15.46
2022-10-02T18:36:11.485Z,15.46
2022-10-02T18:39:00.166Z,15.46
2022-10-02T18:41:56.415Z,15.45
2022-10-02T18:44:44.798Z,15.42
2022-10-02T18:47:51.445Z,15.41
2022-10-02T18:50:39.485Z,15.40
2022-10-02T18:53:35.444Z,15.41
2022-10-02T18:56:40.557Z,15.42
2022-10-02T18:59:33.447Z,15.46
2022-10-02T19:02:34.543Z,15.61
2022-10-02T19:05:32.871Z,15.52
2022-10-02T19:08:56.478Z,15.42
2022-10-02T19:11:45.256Z,15.38
2022-10-02T19:14:16.212Z,15.34
2022-10-02T19:17:21.527Z,15.29
2022-10-02T19:20:42.572Z,15.29
2022-10-02T19:23:37.942Z,15.26
2022-10-02T19:26:32.566Z,15.25
2022-10-02T19:29:36.590Z,15.23
2022-10-02T19:32:35.509Z,15.18
2022-10-02T19:35:33.690Z,15.13
2022-10-02T19:38:19.538Z,15.07
2022-10-02T19:41:18.557Z,15.02
2022-10-02T19:44:07.612Z,14.98
2022-10-02T19:47:02.569Z,14.94
2022-10-02T19:49:57.545Z,14.90
2022-10-02T19:52:57.578Z,14.85
2022-10-02T19:55:44.778Z,14.82
2022-10-02T19:59:04.570Z,14.80
2022-10-02T20:01:58.593Z,14.73
2022-10-02T20:04:51.658Z,14.66
2022-10-02T20:07:39.580Z,14.62
2022-10-02T20:10:17.082Z,14.59
2022-10-02T20:13:18.609Z,14.57
2022-10-02T20:16:46.661Z,14.51
2022-10-02T20:19:45.642Z,14.46
2022-10-02T20:22:44.629Z,14.45
2022-10-02T20:25:35.644Z,14.41
2022-10-02T20:28:38.633Z,14.39
2022-10-02T20:31:43.385Z,14.34
2022-10-02T20:34:48.657Z,14.32
2022-10-02T20:37:35.415Z,14.29
2022-10-02T20:40:31.654Z,14.30
2022-10-02T20:43:30.665Z,14.26
2022-10-02T20:46:42.676Z,14.26
2022-10-02T20:49:41.393Z,14.22
2022-10-02T20:52:52.461Z,14.17
2022-10-02T20:56:05.698Z,14.14
2022-10-02T20:58:58.722Z,14.10
2022-10-02T21:01:44.956Z,14.07
2022-10-02T21:04:40.309Z,14.05
2022-10-02T21:07:49.929Z,14.01
2022-10-02T21:11:05.755Z,13.99
2022-10-02T21:14:17.743Z,14.00
2022-10-02T21:17:23.121Z,14.00
2022-10-02T21:20:49.706Z,13.97
2022-10-02T21:23:46.661Z,13.92
2022-10-02T21:26:54.798Z,13.89
2022-10-02T21:30:10.511Z,13.85
2022-10-02T21:33:07.783Z,13.79
2022-10-02T21:35:35.909Z,13.77
2022-10-02T21:38:45.983Z,13.74
2022-10-02T21:41:43.780Z,13.72
2022-10-02T21:45:08.814Z,13.70
2022-10-02T21:48:04.812Z,13.66
2022-10-02T21:50:54.232Z,13.65
2022-10-02T21:53:52.830Z,13.64
2022-10-02T21:56:52.488Z,13.64
2022-10-02T21:59:58.337Z,13.64
2022-10-02T22:02:53.830Z,13.65
2022-10-02T22:05:55.897Z,13.65
2022-10-02T22:09:14.836Z,13.65
2022-10-02T22:12:26.856Z,13.62
2022-10-02T22:15:13.322Z,13.59
2022-10-02T22:18:07.785Z,13.57
2022-10-02T22:20:41.432Z,13.56
2022-10-02T22:23:41.908Z,13.54
2022-10-02T22:26:34.899Z,13.49
2022-10-02T22:29:49.908Z,13.46
2022-10-02T22:33:13.901Z,13.45
2022-10-02T22:36:06.934Z,13.46
2022-10-02T22:39:14.916Z,13.42
2022-10-02T22:42:19.941Z,13.37
2022-10-02T22:45:22.865Z,13.32
2022-10-02T22:48:19.181Z,13.29
2022-10-02T22:50:55.857Z,13.25
2022-10-02T22:53:44.631Z,13.21
2022-10-02T22:56:17.200Z,13.18
2022-10-02T22:58:56.375Z,13.18
2022-10-02T23:01:23.159Z,13.15
2022-10-02T23:04:29.007Z,13.15
2022-10-02T23:07:28.977Z,13.10
2022-10-02T23:10:21.984Z,13.08
2022-10-02T23:13:21.119Z,13.07
2022-10-02T23:16:22.036Z,13.06
2022-10-02T23:19:08.276Z,13.08
2022-10-02T23:22:06.806Z,13.07
2022-10-02T23:25:04.012Z,13.04
2022-10-02T23:28:07.112Z,13.02
2022-10-02T23:31:12.848Z,12.96
2022-10-02T23:34:16.045Z,12.94
2022-10-02T23:37:28.045Z,12.90
2022-10-02T23:40:52.592Z,12.91
2022-10-02T23:43:50.057Z,12.89
2022-10-02T23:46:53.985Z,12.88
2022-10-02T23:50:00.110Z,12.86
2022-10-02T23:53:02.098Z,12.83
2022-10-02T23:55:58.077Z,12.79
2022-10-02T23:59:10.075Z,12.76
